Terminal Aerodrome Forecast
Issued by NWS Cleveland, OH

Home | Current Version | Previous Version | Text Only | Print | Product List | Glossary On
Versions: 1 2 3 4 5 6 7 8 9 10 11 12 13 14 15 16 17 18 19 20
000
FTUS41 KCLE 041307 AAA
TAFMFD
TAF AMD
KMFD 041307Z 0413/0512 33006KT P6SM FEW045
     FM050100 VRB02KT P6SM SKC
      TEMPO 0509/0512 4SM BR=

USA.gov is the U.S. government's official web portal to all federal, state and local government web resources and services.